Time;durP1;ratioP1;P1;durP2;ratioP2;P2;SDS_P1;SDS_P2;PMS_P1;PMS_P2;Temp;Humidity;BMP_temperature;BMP_pressure;BME280_temperature;BME280_humidity;BME280_pressure;Samples;Min_cycle;Max_cycle;Signal;HPM_P1;HPM_P2
2022/05/09 00:00:20;;;;;;;7.55;2.70;;;6.70;99.90;;;;;;5034464;28;20037;-62
2022/05/09 00:02:45;;;;;;;5.00;2.78;;;6.80;99.90;;;;;;5034787;28;20069;-62
2022/05/09 00:05:15;;;;;;;10.30;2.80;;;6.80;99.90;;;;;;5016815;28;20076;-61
2022/05/09 00:07:42;;;;;;;4.78;3.15;;;6.80;99.90;;;;;;5034668;28;20033;-62
2022/05/09 00:10:10;;;;;;;7.78;3.20;;;6.80;99.90;;;;;;5034778;28;20510;-62
2022/05/09 00:12:36;;;;;;;;;;;6.70;99.90;;;;;;5034984;28;20036;-62
2022/05/09 00:15:02;;;;;;;5.57;2.50;;;6.70;99.90;;;;;;5016864;28;19905;-62
2022/05/09 00:17:28;;;;;;;7.68;2.95;;;6.70;99.90;;;;;;5034341;28;20022;-62
2022/05/09 00:19:54;;;;;;;7.30;3.38;;;6.60;99.90;;;;;;5016667;28;20040;-62
2022/05/09 00:22:43;;;;;;;5.68;3.08;;;6.60;99.90;;;;;;5016693;28;20524;-62
2022/05/09 00:25:09;;;;;;;8.05;3.63;;;6.50;99.90;;;;;;5034414;28;20401;-62
2022/05/09 00:27:34;;;;;;;6.90;3.10;;;6.40;99.90;;;;;;5016725;28;20128;-62
2022/05/09 00:30:00;;;;;;;10.27;3.20;;;6.40;99.90;;;;;;5034320;28;20049;-62
2022/05/09 00:32:27;;;;;;;5.38;3.38;;;6.40;99.90;;;;;;5034165;28;20049;-62
2022/05/09 00:34:53;;;;;;;10.93;3.70;;;6.40;99.90;;;;;;5033865;28;20037;-62
2022/05/09 00:37:19;;;;;;;8.45;3.65;;;6.30;99.90;;;;;;5034118;28;20663;-60
2022/05/09 00:39:47;;;;;;;11.05;3.60;;;6.40;99.90;;;;;;5034048;28;20030;-61
2022/05/09 00:42:13;;;;;;;6.30;3.33;;;6.50;99.90;;;;;;5033846;28;20033;-60
2022/05/09 00:44:40;;;;;;;8.35;3.88;;;6.40;99.90;;;;;;5033844;28;20047;-60
2022/05/09 00:47:06;;;;;;;6.45;3.67;;;6.40;99.90;;;;;;5034079;28;20498;-60
2022/05/09 00:49:46;;;;;;;6.03;3.45;;;6.60;99.90;;;;;;5033538;28;20033;-60
2022/05/09 00:52:18;;;;;;;9.07;3.33;;;6.60;99.90;;;;;;5034016;28;20053;-60
2022/05/09 00:54:56;;;;;;;5.95;3.33;;;6.50;99.90;;;;;;5033902;28;20029;-59
2022/05/09 00:57:40;;;;;;;8.63;3.75;;;6.30;99.90;;;;;;5033734;28;20033;-59
2022/05/09 01:00:17;;;;;;;6.80;3.92;;;6.20;99.90;;;;;;5033888;28;20441;-59
2022/05/09 01:02:48;;;;;;;8.02;3.60;;;6.20;99.90;;;;;;5015974;28;20083;-59
2022/05/09 01:05:16;;;;;;;8.95;3.97;;;6.10;99.90;;;;;;5033882;28;20486;-59
2022/05/09 01:07:43;;;;;;;7.20;3.70;;;6.00;99.90;;;;;;5033645;28;20037;-60
2022/05/09 01:10:34;;;;;;;7.90;3.83;;;6.10;99.90;;;;;;5033990;28;20064;-59
2022/05/09 01:13:05;;;;;;;8.73;4.25;;;6.30;99.90;;;;;;5032864;28;20037;-60
2022/05/09 01:15:54;;;;;;;8.55;4.15;;;6.50;99.90;;;;;;5015852;28;20072;-60
2022/05/09 01:18:21;;;;;;;6.78;3.88;;;6.40;99.90;;;;;;5033700;28;20037;-60
2022/05/09 01:20:47;;;;;;;11.63;4.68;;;6.30;99.90;;;;;;5033925;28;20033;-59
2022/05/09 01:23:12;;;;;;;9.68;4.70;;;6.30;99.90;;;;;;5033355;28;20172;-60
2022/05/09 01:25:39;;;;;;;7.95;4.20;;;6.20;99.90;;;;;;5034109;28;20037;-60
2022/05/09 01:28:06;;;;;;;6.40;4.07;;;6.20;99.90;;;;;;5033546;28;20118;-60
2022/05/09 01:30:46;;;;;;;6.95;4.13;;;6.10;99.90;;;;;;5033362;28;20049;-59
2022/05/09 01:33:20;;;;;;;9.52;4.07;;;6.10;99.90;;;;;;5033373;28;20402;-60
2022/05/09 01:36:21;;;;;;;6.80;4.13;;;6.10;99.90;;;;;;5033442;28;20493;-60
2022/05/09 01:39:10;;;;;;;10.60;4.72;;;6.10;99.90;;;;;;5033658;28;20025;-59
2022/05/09 01:41:48;;;;;;;8.63;4.03;;;6.10;99.90;;;;;;5033676;28;20104;-60
2022/05/09 01:44:15;;;;;;;7.72;4.18;;;6.10;99.90;;;;;;5033475;28;20551;-60
2022/05/09 01:49:30;;;;;;;11.73;3.85;;;6.00;99.90;;;;;;5033346;28;20079;-59
2022/05/09 01:52:07;;;;;;;8.00;4.05;;;6.10;99.90;;;;;;5033087;28;20064;-60
2022/05/09 01:54:34;;;;;;;7.05;4.07;;;6.00;99.90;;;;;;5033022;28;20102;-59
2022/05/09 01:57:14;;;;;;;10.15;5.25;;;5.90;99.90;;;;;;5033083;28;20033;-59
2022/05/09 01:59:41;;;;;;;14.68;4.70;;;5.90;99.90;;;;;;5033070;28;20096;-59
2022/05/09 02:02:10;;;;;;;10.97;5.27;;;5.90;99.90;;;;;;5033093;28;20371;-61
2022/05/09 02:04:40;;;;;;;11.13;4.57;;;5.90;99.90;;;;;;5032533;28;20084;-60
2022/05/09 02:07:11;;;;;;;9.93;5.90;;;5.80;99.90;;;;;;5032747;28;20088;-60
2022/05/09 02:09:45;;;;;;;10.93;5.70;;;5.90;99.90;;;;;;5032613;28;20481;-60
2022/05/09 02:12:11;;;;;;;14.65;6.22;;;5.90;99.90;;;;;;5032290;28;20045;-60
2022/05/09 02:14:38;;;;;;;15.65;6.05;;;5.90;99.90;;;;;;5033006;28;20065;-59
2022/05/09 02:17:05;;;;;;;10.10;5.20;;;5.90;99.90;;;;;;5032447;28;20044;-60
2022/05/09 02:19:31;;;;;;;9.00;5.13;;;5.90;99.90;;;;;;5032773;28;20572;-60
2022/05/09 02:21:56;;;;;;;12.52;5.60;;;5.90;99.90;;;;;;5032542;28;20812;-60
2022/05/09 02:24:22;;;;;;;10.25;5.00;;;5.90;99.90;;;;;;5034685;28;20064;-59
2022/05/09 02:30:07;;;;;;;9.57;5.07;;;5.90;99.90;;;;;;5036688;28;20048;-60
2022/05/09 02:32:33;;;;;;;12.40;6.03;;;5.90;99.90;;;;;;5036634;28;20097;-60
2022/05/09 02:34:58;;;;;;;9.77;5.20;;;5.90;99.90;;;;;;5036662;28;20029;-60
2022/05/09 02:37:24;;;;;;;9.23;5.13;;;5.90;99.90;;;;;;5036506;28;20041;-60
2022/05/09 02:43:26;;;;;;;10.95;5.40;;;5.80;99.90;;;;;;5036603;28;20040;-59
2022/05/09 02:45:52;;;;;;;11.90;4.82;;;5.80;99.90;;;;;;5036712;28;20037;-59
2022/05/09 02:48:17;;;;;;;12.05;6.15;;;5.90;99.90;;;;;;5036469;28;20087;-59
2022/05/09 02:50:43;;;;;;;9.63;4.75;;;5.80;99.90;;;;;;5036433;28;20060;-59
2022/05/09 02:53:10;;;;;;;16.13;5.95;;;5.70;99.90;;;;;;5036116;28;20056;-60
2022/05/09 02:55:36;;;;;;;13.20;5.75;;;5.80;99.90;;;;;;5036554;28;20375;-59
2022/05/09 02:58:03;;;;;;;8.23;5.07;;;5.80;99.90;;;;;;5036292;28;20033;-59
2022/05/09 03:00:30;;;;;;;9.07;5.65;;;5.80;99.90;;;;;;5036466;28;20037;-60
2022/05/09 03:05:44;;;;;;;11.73;5.97;;;5.80;99.90;;;;;;5036362;28;20095;-60
2022/05/09 03:08:12;;;;;;;9.82;5.32;;;5.70;99.90;;;;;;5036277;28;20482;-60
2022/05/09 03:10:38;;;;;;;12.10;5.50;;;5.70;99.90;;;;;;5036268;28;20612;-60
2022/05/09 03:13:06;;;;;;;12.07;5.07;;;5.80;99.90;;;;;;5035788;28;20493;-60
2022/05/09 03:15:38;;;;;;;11.57;5.38;;;5.80;99.90;;;;;;5035969;28;20378;-60
2022/05/09 03:18:04;;;;;;;15.57;5.78;;;5.70;99.90;;;;;;5036167;28;20054;-59
2022/05/09 03:20:30;;;;;;;13.38;6.10;;;5.70;99.90;;;;;;5018050;28;20042;-60
2022/05/09 03:22:56;;;;;;;9.07;5.30;;;5.70;99.90;;;;;;5035903;28;20398;-60
2022/05/09 03:25:22;;;;;;;13.40;5.53;;;5.70;99.90;;;;;;5035569;28;20046;-60
2022/05/09 03:27:48;;;;;;;10.77;5.53;;;5.70;99.90;;;;;;5035810;28;20068;-60
2022/05/09 03:30:38;;;;;;;19.13;6.45;;;5.80;99.90;;;;;;5035535;28;20049;-59
2022/05/09 03:33:05;;;;;;;10.02;5.70;;;5.80;99.90;;;;;;5035794;28;20045;-60
2022/05/09 03:39:00;;;;;;;17.42;6.13;;;5.80;99.90;;;;;;5035590;28;20052;-59
2022/05/09 03:41:26;;;;;;;12.25;5.82;;;5.70;99.90;;;;;;5035720;28;20498;-60
2022/05/09 03:43:52;;;;;;;18.95;5.95;;;5.70;99.90;;;;;;5035450;28;20030;-59
2022/05/09 03:46:17;;;;;;;11.73;5.57;;;5.80;99.90;;;;;;5035210;28;20042;-60
2022/05/09 03:48:43;;;;;;;10.73;5.50;;;5.80;99.90;;;;;;5034651;28;20108;-60
2022/05/09 03:51:09;;;;;;;14.20;5.90;;;5.80;99.90;;;;;;5034990;28;20033;-60
2022/05/09 03:53:35;;;;;;;9.40;5.40;;;5.80;99.90;;;;;;5035032;28;20048;-60
2022/05/09 03:56:20;;;;;;;17.92;6.13;;;5.80;99.90;;;;;;5035085;28;20034;-60
2022/05/09 03:58:46;;;;;;;15.77;5.90;;;5.90;99.90;;;;;;5017435;28;20030;-59
2022/05/09 04:01:11;;;;;;;23.13;5.93;;;5.90;99.90;;;;;;5035279;28;20033;-60
2022/05/09 04:03:38;;;;;;;7.75;4.95;;;5.90;99.90;;;;;;5035148;28;20037;-60
2022/05/09 04:06:05;;;;;;;11.63;5.93;;;5.90;99.90;;;;;;5034816;28;20041;-60
2022/05/09 04:08:31;;;;;;;8.32;5.10;;;5.90;99.90;;;;;;5034880;28;20045;-59
2022/05/09 04:10:56;;;;;;;9.07;6.00;;;5.80;99.90;;;;;;5034814;28;20544;-60
2022/05/09 04:13:22;;;;;;;9.02;5.72;;;5.80;99.90;;;;;;5034947;28;20059;-60
2022/05/09 04:18:39;;;;;;;14.18;5.20;;;5.90;99.90;;;;;;5035144;28;20401;-59
2022/05/09 04:21:06;;;;;;;11.73;5.45;;;5.90;99.90;;;;;;5034932;28;20452;-60
2022/05/09 04:23:33;;;;;;;13.35;6.18;;;5.90;99.90;;;;;;5034657;28;20092;-59
2022/05/09 04:25:59;;;;;;;13.35;5.07;;;5.80;99.90;;;;;;5034629;28;20375;-59
2022/05/09 04:28:25;;;;;;;9.68;5.00;;;5.90;99.90;;;;;;5034375;28;20405;-59
2022/05/09 04:30:51;;;;;;;12.82;6.05;;;5.90;99.90;;;;;;5034192;28;20046;-59
2022/05/09 04:33:17;;;;;;;12.40;5.50;;;5.90;99.90;;;;;;5034308;28;20112;-60
2022/05/09 04:35:43;;;;;;;12.77;6.55;;;5.90;99.90;;;;;;5016628;28;20030;-60
2022/05/09 04:38:22;;;;;;;14.77;5.90;;;6.00;99.90;;;;;;5034617;28;20033;-59
2022/05/09 04:40:51;;;;;;;17.13;6.05;;;6.00;99.90;;;;;;5016666;28;20036;-63
2022/05/09 04:43:23;;;;;;;12.23;5.03;;;6.10;99.90;;;;;;5034515;28;20455;-63
2022/05/09 04:45:49;;;;;;;11.23;6.03;;;6.20;99.90;;;;;;5034061;28;20071;-62
2022/05/09 04:48:20;;;;;;;9.00;5.93;;;6.20;99.90;;;;;;5016333;28;20096;-61
2022/05/09 04:50:46;;;;;;;15.57;6.30;;;6.30;99.90;;;;;;5034345;28;20042;-61
2022/05/09 04:53:12;;;;;;;17.17;6.78;;;6.30;99.90;;;;;;5016236;28;20065;-61
2022/05/09 04:55:38;;;;;;;18.88;5.90;;;6.40;99.90;;;;;;5033883;28;20080;-62
2022/05/09 04:58:04;;;;;;;17.08;7.00;;;6.40;99.90;;;;;;5033851;28;20022;-61
2022/05/09 05:00:30;;;;;;;13.48;6.65;;;6.40;99.90;;;;;;5033800;28;20040;-61
2022/05/09 05:02:57;;;;;;;13.85;5.65;;;6.50;99.90;;;;;;5033920;28;20040;-61
2022/05/09 05:05:24;;;;;;;14.25;5.75;;;6.60;99.90;;;;;;5034026;28;20044;-61
2022/05/09 05:07:51;;;;;;;12.27;6.07;;;6.60;99.90;;;;;;5016463;28;20033;-61
2022/05/09 05:10:18;;;;;;;11.88;5.38;;;6.70;99.90;;;;;;5033699;28;20124;-61
2022/05/09 05:12:44;;;;;;;16.00;6.20;;;6.60;99.90;;;;;;5033444;28;20033;-61
2022/05/09 05:15:11;;;;;;;14.70;5.90;;;6.40;99.90;;;;;;5015645;28;20559;-61
2022/05/09 05:17:38;;;;;;;11.65;6.18;;;6.40;99.90;;;;;;5033766;28;20504;-61
2022/05/09 05:20:12;;;;;;;17.10;6.47;;;6.50;99.90;;;;;;5033608;28;20033;-61
2022/05/09 05:22:40;;;;;;;11.25;5.63;;;6.50;99.90;;;;;;5033545;28;20559;-60
2022/05/09 05:25:08;;;;;;;13.55;6.40;;;6.60;99.90;;;;;;5033850;28;20037;-61
2022/05/09 05:27:33;;;;;;;12.82;6.57;;;6.70;99.90;;;;;;5033300;28;20045;-61
2022/05/09 05:29:59;;;;;;;13.23;6.78;;;6.90;99.90;;;;;;5033237;28;20103;-61
2022/05/09 05:32:28;;;;;;;14.43;7.40;;;6.90;99.90;;;;;;5033468;28;20441;-61
2022/05/09 05:34:54;;;;;;;22.83;7.30;;;7.00;99.90;;;;;;5033585;28;20037;-61
2022/05/09 05:37:20;;;;;;;14.57;6.43;;;7.10;99.90;;;;;;5033395;28;20433;-61
2022/05/09 05:39:47;;;;;;;13.85;7.53;;;7.30;99.90;;;;;;5033236;28;20045;-61
2022/05/09 05:42:15;;;;;;;10.90;6.07;;;7.40;99.90;;;;;;5015457;28;20057;-61
2022/05/09 05:44:41;;;;;;;9.27;5.47;;;7.40;99.90;;;;;;5033471;28;20529;-60
2022/05/09 05:47:09;;;;;;;14.55;6.25;;;7.50;99.90;;;;;;5033235;28;20060;-61
2022/05/09 05:49:37;;;;;;;11.98;5.97;;;7.60;99.90;;;;;;5032969;28;20047;-60
2022/05/09 05:52:04;;;;;;;10.82;5.90;;;7.90;99.90;;;;;;5032767;28;20401;-61
2022/05/09 05:54:39;;;;;;;13.00;5.80;;;8.00;99.90;;;;;;5033158;28;20045;-61
2022/05/09 05:57:06;;;;;;;14.07;6.13;;;8.20;99.90;;;;;;5033127;28;20664;-60
2022/05/09 05:59:32;;;;;;;15.48;7.10;;;8.30;99.90;;;;;;5034722;28;20030;-59
2022/05/09 06:01:58;;;;;;;11.82;5.68;;;8.40;99.90;;;;;;5018050;28;20045;-60
2022/05/09 06:04:24;;;;;;;13.48;6.60;;;8.60;99.90;;;;;;5019338;28;20429;-61
2022/05/09 06:06:49;;;;;;;18.15;6.50;;;8.70;99.90;;;;;;5039470;28;20113;-60
2022/05/09 06:09:16;;;;;;;13.43;5.70;;;8.80;99.90;;;;;;5039577;28;20055;-61
2022/05/09 06:11:42;;;;;;;19.80;6.28;;;9.00;99.90;;;;;;5023264;28;20421;-60
2022/05/09 06:14:09;;;;;;;15.57;6.90;;;9.10;99.90;;;;;;5019563;28;20434;-60
2022/05/09 06:16:36;;;;;;;11.30;5.82;;;9.20;99.90;;;;;;5019834;28;20057;-60
2022/05/09 06:19:05;;;;;;;13.90;6.43;;;9.40;99.90;;;;;;5019700;28;20065;-62
2022/05/09 06:21:34;;;;;;;14.95;6.07;;;9.50;99.90;;;;;;5019626;28;20030;-61
2022/05/09 06:24:04;;;;;;;9.93;5.22;;;9.70;99.90;;;;;;5019391;28;20034;-59
2022/05/09 06:26:30;;;;;;;10.10;5.50;;;9.80;99.90;;;;;;5019048;28;20061;-60
2022/05/09 06:28:56;;;;;;;14.23;6.75;;;9.90;99.90;;;;;;5023473;28;20092;-61
2022/05/09 06:31:22;;;;;;;12.43;5.55;;;10.00;99.90;;;;;;5037378;28;20045;-59
2022/05/09 06:33:47;;;;;;;12.18;5.68;;;10.10;99.90;;;;;;5038937;28;20041;-59
2022/05/09 06:36:13;;;;;;;11.77;6.00;;;10.10;99.90;;;;;;5038755;28;20030;-60
2022/05/09 06:38:39;;;;;;;16.15;6.63;;;10.20;99.90;;;;;;5039152;28;20084;-60
2022/05/09 06:41:07;;;;;;;14.02;6.18;;;10.40;99.90;;;;;;5038850;28;20037;-59
2022/05/09 06:43:33;;;;;;;10.25;5.35;;;10.60;99.90;;;;;;5037396;28;20037;-59
2022/05/09 06:46:00;;;;;;;11.32;6.28;;;10.70;99.90;;;;;;5038531;28;20042;-59
2022/05/09 06:48:25;;;;;;;14.98;6.25;;;10.80;99.90;;;;;;5038396;28;20061;-59
2022/05/09 06:50:51;;;;;;;16.98;6.07;;;11.00;99.90;;;;;;5036843;28;20060;-60
2022/05/09 06:53:59;;;;;;;11.35;5.93;;;11.10;99.90;;;;;;5027906;28;20038;-58
2022/05/09 06:56:24;;;;;;;11.68;5.80;;;11.30;99.90;;;;;;5018481;28;20037;-58
2022/05/09 06:58:50;;;;;;;13.43;5.97;;;11.40;99.90;;;;;;5038121;28;20040;-60
2022/05/09 07:01:18;;;;;;;15.82;7.05;;;11.50;99.90;;;;;;5038377;28;20038;-60
2022/05/09 07:03:44;;;;;;;15.68;6.68;;;11.60;99.90;;;;;;5041899;28;20040;-59
2022/05/09 07:06:10;;;;;;;15.25;6.60;;;11.80;99.90;;;;;;5038584;28;20025;-59
2022/05/09 07:08:37;;;;;;;13.55;6.78;;;11.80;99.90;;;;;;5019627;28;20034;-59
2022/05/09 07:11:05;;;;;;;15.35;6.90;;;11.90;99.90;;;;;;5034515;28;20041;-59
2022/05/09 07:13:31;;;;;;;15.27;7.10;;;12.00;99.90;;;;;;5017188;28;20034;-59
2022/05/09 07:15:57;;;;;;;17.08;7.07;;;12.20;99.90;;;;;;5033206;28;20057;-59
2022/05/09 07:18:28;;;;;;;12.77;5.47;;;12.30;99.90;;;;;;5035062;28;20508;-59
2022/05/09 07:20:56;;;;;;;10.23;5.30;;;12.50;99.90;;;;;;5035402;28;20049;-59
2022/05/09 07:23:22;;;;;;;17.40;6.68;;;12.70;99.90;;;;;;5034889;28;20109;-59
2022/05/09 07:25:50;;;;;;;15.13;6.53;;;12.80;99.90;;;;;;5024270;28;20038;-60
2022/05/09 07:28:19;;;;;;;12.50;5.72;;;12.90;99.90;;;;;;5027072;28;20044;-59
2022/05/09 07:30:45;;;;;;;13.20;5.47;;;13.10;99.90;;;;;;5009850;28;20060;-60
2022/05/09 07:33:18;;;;;;;13.25;5.72;;;13.10;99.90;;;;;;5015357;28;20054;-60
2022/05/09 07:35:45;;;;;;;15.60;5.68;;;13.20;99.90;;;;;;5014840;28;20038;-59
2022/05/09 07:38:11;;;;;;;12.30;5.15;;;13.30;99.90;;;;;;5014928;28;20043;-59
2022/05/09 07:40:38;;;;;;;11.20;4.97;;;13.50;99.90;;;;;;5014925;28;20114;-59
2022/05/09 07:43:08;;;;;;;14.30;5.85;;;13.50;99.90;;;;;;5000432;28;20038;-58
2022/05/09 07:45:33;;;;;;;9.63;5.65;;;13.50;99.90;;;;;;5014875;28;20040;-58
2022/05/09 07:47:59;;;;;;;10.85;5.72;;;13.60;99.90;;;;;;5007730;28;20038;-61
2022/05/09 07:50:26;;;;;;;9.82;5.35;;;13.80;99.90;;;;;;4995645;28;20117;-61
2022/05/09 07:52:52;;;;;;;16.13;6.05;;;13.80;99.90;;;;;;4984960;28;20041;-61
2022/05/09 07:55:18;;;;;;;11.55;5.30;;;14.00;99.90;;;;;;5015301;28;20474;-60
2022/05/09 07:57:44;;;;;;;9.05;4.50;;;14.10;99.90;;;;;;5014306;28;20069;-61
2022/05/09 08:00:11;;;;;;;13.85;5.43;;;14.30;99.90;;;;;;5014954;28;20080;-60
2022/05/09 08:06:02;;;;;;;9.27;5.03;;;14.60;99.90;;;;;;5009619;28;20274;-59
2022/05/09 08:08:30;;;;;;;11.52;4.40;;;14.70;99.90;;;;;;5013929;28;20554;-60
2022/05/09 08:10:58;;;;;;;12.20;4.72;;;14.80;99.90;;;;;;5012701;28;20077;-60
2022/05/09 08:13:25;;;;;;;8.38;4.10;;;14.90;99.90;;;;;;5011473;28;20433;-62
2022/05/09 08:15:52;;;;;;;9.25;4.57;;;15.10;99.90;;;;;;5012504;28;20065;-61
2022/05/09 08:18:19;;;;;;;12.23;4.60;;;15.10;99.40;;;;;;5014573;28;20442;-61
2022/05/09 08:20:45;;;;;;;6.03;4.22;;;15.00;99.70;;;;;;5014652;28;20540;-61
2022/05/09 08:23:15;;;;;;;8.05;3.80;;;15.30;99.90;;;;;;5014181;28;20034;-60
2022/05/09 08:25:44;;;;;;;8.23;3.42;;;15.40;99.10;;;;;;5014817;28;20120;-61
2022/05/09 08:28:10;;;;;;;9.32;3.60;;;15.60;99.00;;;;;;5014267;28;20038;-62
2022/05/09 08:30:37;;;;;;;6.57;3.35;;;15.60;97.60;;;;;;5031801;28;20132;-61
2022/05/09 08:33:10;;;;;;;7.30;2.97;;;15.90;98.50;;;;;;5016328;28;20559;-62
2022/05/09 08:35:36;;;;;;;8.65;4.25;;;16.00;97.50;;;;;;5034368;28;20494;-61
2022/05/09 08:38:02;;;;;;;11.07;3.15;;;16.00;97.70;;;;;;5034045;28;20068;-61
2022/05/09 08:41:08;;;;;;;8.13;3.55;;;16.30;97.80;;;;;;5015838;28;20616;-61
2022/05/09 08:44:09;;;;;;;7.32;3.15;;;16.40;97.70;;;;;;5031799;28;20498;-61
2022/05/09 08:46:59;;;;;;;7.82;3.70;;;16.70;97.00;;;;;;5034165;28;20034;-60
2022/05/09 08:49:47;;;;;;;5.93;3.45;;;16.90;96.90;;;;;;5033913;28;20049;-61
2022/05/09 08:52:22;;;;;;;9.63;3.10;;;17.30;95.50;;;;;;5015975;28;20048;-60
2022/05/09 08:54:49;;;;;;;5.82;3.25;;;17.40;94.90;;;;;;5033979;28;20034;-60
2022/05/09 09:01:41;;;;;;;9.85;3.63;;;17.70;94.80;;;;;;5032048;28;20084;-59
2022/05/09 09:04:55;;;;;;;10.20;4.13;;;17.80;94.70;;;;;;5010656;28;20437;-60
2022/05/09 09:07:53;;;;;;;7.43;3.10;;;17.60;94.00;;;;;;5005433;28;20481;-60
2022/05/09 09:11:04;;;;;;;6.57;2.58;;;17.60;94.40;;;;;;5012070;28;20391;-60
2022/05/09 09:14:13;;;;;;;9.60;3.17;;;17.80;91.80;;;;;;5025856;28;20604;-57
2022/05/09 09:17:29;;;;;;;8.70;3.10;;;18.10;92.60;;;;;;4976600;28;20582;-58
2022/05/09 09:20:35;;;;;;;5.63;2.58;;;18.10;91.20;;;;;;5032041;28;20021;-58
2022/05/09 09:26:04;;;;;;;6.97;2.47;;;18.60;90.50;;;;;;3342855;26;20132;-82
2022/05/09 09:28:49;;;;;;;5.95;2.42;;;19.00;90.60;;;;;;5031693;28;20095;-78
2022/05/09 09:31:41;;;;;;;6.20;2.30;;;19.50;85.00;;;;;;5032043;28;20021;-81
2022/05/09 09:34:46;;;;;;;5.43;2.50;;;19.50;87.70;;;;;;5012052;28;20493;-82
2022/05/09 09:37:19;;;;;;;4.70;2.30;;;19.20;87.40;;;;;;5021195;28;20193;-85
2022/05/09 09:39:44;;;;;;;7.90;2.63;;;18.80;86.50;;;;;;5023593;28;20519;-82
2022/05/09 09:42:10;;;;;;;6.13;2.80;;;19.20;90.30;;;;;;5032232;28;20033;-85
2022/05/09 09:44:42;;;;;;;5.75;2.45;;;19.80;86.30;;;;;;5025969;28;20037;-83
2022/05/09 09:47:20;;;;;;;5.72;2.60;;;20.30;85.80;;;;;;5032288;28;20030;-82
2022/05/09 09:49:48;;;;;;;8.85;2.40;;;20.70;82.40;;;;;;5032322;28;20521;-81
2022/05/09 09:52:14;;;;;;;8.07;2.83;;;21.00;84.30;;;;;;5014079;28;20049;-82
2022/05/09 09:54:45;;;;;;;7.38;2.50;;;20.60;83.20;;;;;;5032137;28;20060;-82
2022/05/09 09:57:25;;;;;;;4.88;2.50;;;21.00;83.50;;;;;;5032513;28;20466;-80
2022/05/09 09:59:51;;;;;;;8.23;2.83;;;21.50;78.20;;;;;;5014546;28;20175;-82
2022/05/09 10:02:30;;;;;;;5.75;2.80;;;21.40;79.50;;;;;;5031720;28;20112;-79
2022/05/09 10:04:57;;;;;;;4.72;2.13;;;21.30;82.70;;;;;;5031448;28;20025;-81
2022/05/09 10:07:32;;;;;;;4.68;2.40;;;21.60;80.20;;;;;;5015094;28;20058;-80
2022/05/09 10:10:10;;;;;;;6.57;3.03;;;21.70;78.00;;;;;;5014080;28;20040;-80
2022/05/09 10:12:37;;;;;;;4.20;2.38;;;22.00;73.60;;;;;;5010496;28;20073;-85
2022/05/09 10:15:21;;;;;;;;;;;21.90;76.90;;;;;;5006564;28;20029;-82
2022/05/09 10:17:47;;;;;;;3.72;2.28;;;21.50;77.50;;;;;;5008843;28;19949;-80
2022/05/09 10:20:24;;;;;;;6.20;2.72;;;21.90;78.80;;;;;;5012160;28;20034;-81
2022/05/09 10:25:36;;;;;;;7.10;3.17;;;22.40;77.50;;;;;;5022780;28;20045;-84
2022/05/09 10:28:14;;;;;;;8.02;3.35;;;22.40;74.60;;;;;;5026604;28;20040;-78
2022/05/09 10:30:44;;;;;;;8.70;3.20;;;21.40;71.80;;;;;;5031065;28;20573;-84
2022/05/09 10:33:21;;;;;;;5.57;2.72;;;21.30;77.80;;;;;;5012836;28;20402;-81
2022/05/09 10:36:25;;;;;;;5.82;3.08;;;21.80;76.70;;;;;;5015624;28;20050;-75
2022/05/09 10:53:25;;;;;;;6.85;3.03;;;23.50;72.80;;;;;;5107719;27;20401;-74
2022/05/09 10:56:03;;;;;;;7.68;2.97;;;22.40;75.40;;;;;;5096804;28;20020;-76
2022/05/09 11:06:17;;;;;;;7.95;3.83;;;21.50;79.20;;;;;;5090178;28;20368;-73
2022/05/09 11:09:00;;;;;;;8.02;3.95;;;21.60;75.20;;;;;;5088676;28;20028;-73
2022/05/09 11:11:59;;;;;;;5.45;3.10;;;21.70;78.40;;;;;;5070262;28;20040;-74
2022/05/09 11:14:33;;;;;;;5.60;3.35;;;21.70;75.80;;;;;;5088099;28;20047;-71
2022/05/09 11:17:08;;;;;;;5.75;3.30;;;21.80;76.20;;;;;;5100493;28;20076;-71
2022/05/09 11:20:16;;;;;;;4.35;3.00;;;22.20;78.50;;;;;;5108740;28;20077;-71
2022/05/09 11:22:54;;;;;;;8.65;3.30;;;23.00;70.30;;;;;;5108818;28;20042;-76
2022/05/09 11:25:39;;;;;;;7.82;2.90;;;22.90;76.50;;;;;;5109235;28;20103;-72
2022/05/09 11:28:36;;;;;;;7.43;3.40;;;23.40;77.10;;;;;;5109565;28;20020;-72
2022/05/09 11:31:05;;;;;;;5.22;3.70;;;24.00;67.80;;;;;;5109435;28;20028;-79
2022/05/09 11:33:58;;;;;;;8.10;3.33;;;23.80;73.70;;;;;;5109143;28;20023;-81
2022/05/09 11:36:42;;;;;;;5.78;3.25;;;23.80;72.90;;;;;;5104884;28;20377;-80
2022/05/09 11:39:23;;;;;;;7.65;3.78;;;23.70;70.10;;;;;;5109219;28;20106;-82
2022/05/09 11:41:54;;;;;;;6.70;3.88;;;24.00;74.10;;;;;;5070811;28;20043;-78
2022/05/09 11:44:32;;;;;;;6.45;3.08;;;23.70;67.70;;;;;;5088806;28;20071;-78
2022/05/09 11:47:06;;;;;;;7.22;3.28;;;23.30;75.10;;;;;;5070551;28;20115;-79
2022/05/09 11:49:42;;;;;;;8.63;3.40;;;23.00;68.00;;;;;;5094442;28;20048;-80
2022/05/09 11:52:28;;;;;;;7.65;3.67;;;22.40;73.40;;;;;;5083790;28;20053;-80
2022/05/09 11:55:00;;;;;;;6.35;3.50;;;22.50;73.70;;;;;;5092014;28;20047;-80
2022/05/09 11:57:36;;;;;;;7.22;3.17;;;22.80;71.70;;;;;;5095401;28;20063;-79
2022/05/09 12:00:07;;;;;;;7.90;3.53;;;21.90;69.40;;;;;;5095931;28;20450;-78
2022/05/09 12:02:54;;;;;;;6.13;3.58;;;21.70;74.90;;;;;;5077175;28;20424;-79
2022/05/09 12:05:26;;;;;;;7.65;4.15;;;21.70;71.40;;;;;;5095139;28;20025;-81
2022/05/09 12:08:41;;;;;;;7.03;3.70;;;21.50;77.10;;;;;;5079089;28;20027;-80
2022/05/09 12:11:27;;;;;;;8.35;3.58;;;21.30;71.30;;;;;;5058882;28;20032;-79
2022/05/09 12:13:55;;;;;;;6.75;3.53;;;21.40;72.40;;;;;;5064289;28;20045;-83
2022/05/09 12:16:35;;;;;;;;;;;21.40;77.20;;;;;;5059689;28;20040;-82
2022/05/09 12:19:03;;;;;;;5.35;3.92;;;21.70;77.80;;;;;;5094837;28;19908;-84
2022/05/09 12:21:41;;;;;;;6.32;3.13;;;22.30;76.00;;;;;;5094615;28;20031;-77
2022/05/09 12:24:18;;;;;;;8.32;3.85;;;22.70;73.40;;;;;;5076842;28;20059;-80
2022/05/09 12:26:47;;;;;;;10.15;3.88;;;22.70;72.40;;;;;;5090453;28;20028;-80
2022/05/09 12:29:18;;;;;;;5.50;3.97;;;23.20;74.40;;;;;;5094719;28;20367;-78
2022/05/09 12:31:47;;;;;;;10.88;4.45;;;23.70;69.10;;;;;;5094740;28;20497;-84
2022/05/09 12:34:15;;;;;;;5.90;4.03;;;23.40;72.00;;;;;;5094752;28;20466;-80
2022/05/09 12:36:43;;;;;;;8.15;4.38;;;23.00;68.30;;;;;;5093040;28;20028;-82
2022/05/09 12:39:12;;;;;;;7.25;4.30;;;22.90;68.80;;;;;;5094690;28;20120;-87
2022/05/09 12:41:48;;;;;;;7.03;3.85;;;22.70;70.70;;;;;;5086905;28;20028;-84
2022/05/09 12:44:32;;;;;;;8.27;4.88;;;23.00;74.50;;;;;;5074594;28;20478;-85
2022/05/09 12:47:05;;;;;;;6.70;3.50;;;22.80;69.00;;;;;;5090596;28;20470;-82
2022/05/09 12:49:45;;;;;;;7.55;4.32;;;22.70;72.80;;;;;;5094417;28;20031;-84
2022/05/09 12:52:17;;;;;;;6.97;4.20;;;22.60;72.30;;;;;;5075726;28;20524;-83
2022/05/09 12:55:52;;;;;;;7.82;4.20;;;22.80;69.70;;;;;;5091877;28;20478;-84
2022/05/09 12:57:36;;;;;;;5.28;3.83;;;23.30;71.70;;;;;;5092651;28;20409;-84
2022/05/09 13:00:11;;;;;;;6.47;3.88;;;23.70;69.60;;;;;;5075877;28;20113;-84
2022/05/09 13:02:37;;;;;;;9.10;5.07;;;23.50;70.10;;;;;;5093797;28;20477;-85
2022/05/09 13:05:04;;;;;;;6.00;4.32;;;23.50;69.30;;;;;;5088968;28;20113;-85
2022/05/09 13:07:30;;;;;;;5.93;4.05;;;23.20;68.10;;;;;;5093808;28;20020;-84
2022/05/09 13:09:57;;;;;;;8.35;3.97;;;23.30;70.80;;;;;;5094232;28;20032;-83
2022/05/09 13:12:37;;;;;;;7.25;4.57;;;23.60;73.70;;;;;;5093880;28;20016;-85
2022/05/09 13:15:09;;;;;;;8.88;4.43;;;23.30;67.20;;;;;;5090664;28;20025;-84
2022/05/09 13:17:35;;;;;;;12.75;4.93;;;22.70;67.20;;;;;;5090406;28;20385;-85
2022/05/09 13:20:03;;;;;;;11.10;4.13;;;22.60;74.10;;;;;;5093557;28;20020;-82
2022/05/09 13:22:32;;;;;;;11.73;5.05;;;22.70;71.00;;;;;;5093347;28;20481;-81
2022/05/09 13:25:05;;;;;;;8.32;4.55;;;23.30;68.90;;;;;;5088514;28;20474;-84
2022/05/09 13:27:31;;;;;;;7.53;4.43;;;23.40;69.80;;;;;;5095904;28;20497;-83
2022/05/09 13:29:57;;;;;;;7.82;4.47;;;23.80;68.60;;;;;;5094090;28;20036;-85
2022/05/09 13:32:29;;;;;;;7.32;4.75;;;23.40;68.60;;;;;;5093785;28;20069;-84
2022/05/09 13:34:56;;;;;;;8.40;4.40;;;22.80;70.40;;;;;;5094624;28;20081;-77
2022/05/09 13:37:28;;;;;;;9.30;5.45;;;22.50;73.70;;;;;;5089852;28;20024;-85
2022/05/09 13:39:56;;;;;;;10.05;5.50;;;22.70;74.70;;;;;;5093609;28;20386;-77
2022/05/09 13:42:33;;;;;;;11.65;5.47;;;23.20;71.70;;;;;;5074716;28;20062;-80
2022/05/09 13:45:16;;;;;;;10.30;4.90;;;23.50;70.70;;;;;;5073510;28;20039;-84
2022/05/09 13:47:46;;;;;;;10.38;5.13;;;24.00;69.60;;;;;;5073772;28;20438;-86
2022/05/09 13:50:13;;;;;;;10.88;4.88;;;23.90;69.10;;;;;;5073181;28;20043;-83
2022/05/09 13:52:44;;;;;;;10.70;5.72;;;23.40;70.20;;;;;;5083496;28;20517;-84
2022/05/09 13:55:21;;;;;;;8.57;5.38;;;23.00;68.00;;;;;;5092407;28;20543;-84
2022/05/09 13:57:49;;;;;;;7.33;4.93;;;23.10;71.90;;;;;;5091947;28;20587;-83
2022/05/09 14:00:22;;;;;;;7.85;4.32;;;23.30;66.60;;;;;;5087725;28;20107;-83
2022/05/09 14:02:51;;;;;;;6.30;4.47;;;23.50;68.90;;;;;;5071649;28;20119;-79
2022/05/09 14:05:22;;;;;;;10.40;4.80;;;23.30;64.80;;;;;;5060716;28;20028;-73